Hantsport, Canada
Current Conditions -  °F | °C
As of 5:00 AM on Sunday 23 Nov 2014 (Local Time) from CYHZ Reporting Station
Overcast Overcast  
Wind Chill: 31°   Ceiling: 1700
Heat Index: 39°   Visibility: 15mi
Dew Point: 36°   Wind: 15mph
Humidity: 87%   Direction: 260°W
Pressure: 29.86"   Gusts: NA
Location:  45.07°N, 64.18°W
Report Text: CYHZ 230900Z 26013KT 15SM SCT009 OVC017 04/02 A2986 RMK SF3SC5 SLP119
Loading
Personal Weather Stations






























Interactive Weather Map New forecast layout! Learn more

10-Day Weather Forecast

Advertisements
Track Severe Weather on mobile